Time;durP1;ratioP1;P1;durP2;ratioP2;P2;SDS_P1;SDS_P2;PMS_P1;PMS_P2;Temp;Humidity;BMP_temperature;BMP_pressure;BME280_temperature;BME280_humidity;BME280_pressure;Samples;Min_cycle;Max_cycle;Signal;HPM_P1;HPM_P2
2021/07/17 00:01:43;;;;;;;97.18;13.85;;;16.40;78.70;;;;;;6275075;22;20023;-78
2021/07/17 00:04:10;;;;;;;19.70;9.68;;;16.40;79.00;;;;;;6275623;22;20020;-78
2021/07/17 00:06:48;;;;;;;27.38;8.85;;;16.40;79.40;;;;;;6275451;22;20050;-79
2021/07/17 00:09:15;;;;;;;27.02;8.88;;;16.40;79.20;;;;;;6275414;22;20343;-78
2021/07/17 00:11:42;;;;;;;24.63;9.55;;;16.40;78.60;;;;;;6275399;22;20467;-78
2021/07/17 00:14:09;;;;;;;20.85;9.60;;;16.40;78.70;;;;;;6275404;22;20016;-78
2021/07/17 00:16:36;;;;;;;20.73;9.13;;;16.30;79.10;;;;;;6276632;22;20016;-78
2021/07/17 00:19:04;;;;;;;28.52;10.00;;;16.30;78.90;;;;;;6276668;22;20081;-78
2021/07/17 00:21:31;;;;;;;21.77;9.13;;;16.30;78.70;;;;;;6274865;22;20107;-78
2021/07/17 00:23:59;;;;;;;23.33;9.90;;;16.30;78.90;;;;;;6276503;22;20019;-78
2021/07/17 00:26:26;;;;;;;26.05;9.27;;;16.40;79.30;;;;;;6275141;22;20022;-78
2021/07/17 00:28:53;;;;;;;24.17;9.48;;;16.30;79.70;;;;;;6274872;22;20482;-78
2021/07/17 00:31:20;;;;;;;22.35;10.27;;;16.30;80.00;;;;;;6276465;22;20348;-78
2021/07/17 00:33:47;;;;;;;21.35;9.50;;;16.40;80.20;;;;;;6275025;22;20074;-78
2021/07/17 00:36:14;;;;;;;26.23;10.15;;;16.30;80.40;;;;;;6274843;22;20016;-78
2021/07/17 00:38:41;;;;;;;26.63;9.35;;;16.40;80.60;;;;;;6275075;22;20020;-78
2021/07/17 00:41:08;;;;;;;27.23;10.05;;;16.40;80.60;;;;;;6275231;22;20329;-78
2021/07/17 00:43:35;;;;;;;30.70;9.20;;;16.40;80.60;;;;;;6275446;22;20026;-78
2021/07/17 00:46:02;;;;;;;20.85;8.85;;;16.40;80.50;;;;;;6274781;22;20016;-78
2021/07/17 00:48:30;;;;;;;23.63;9.73;;;16.40;80.30;;;;;;6275245;22;20043;-78
2021/07/17 00:50:58;;;;;;;27.60;9.73;;;16.40;80.20;;;;;;6274326;22;20359;-77
2021/07/17 00:53:25;;;;;;;22.35;9.45;;;16.40;80.50;;;;;;6276233;22;20015;-78
2021/07/17 00:55:54;;;;;;;26.95;9.93;;;16.40;80.20;;;;;;6276081;22;20078;-78
2021/07/17 00:58:26;;;;;;;22.30;9.30;;;16.40;80.20;;;;;;6275072;22;20020;-78
2021/07/17 01:00:54;;;;;;;27.90;9.70;;;16.40;80.40;;;;;;6276047;22;20026;-77
2021/07/17 01:03:22;;;;;;;25.35;10.40;;;16.40;80.50;;;;;;6275062;22;20019;-77
2021/07/17 01:05:50;;;;;;;34.42;9.85;;;16.50;80.70;;;;;;6274449;22;20486;-77
2021/07/17 01:08:19;;;;;;;21.75;9.43;;;16.50;80.40;;;;;;6276115;22;20090;-78
2021/07/17 01:10:47;;;;;;;20.98;9.07;;;16.50;80.40;;;;;;6274555;22;20378;-78
2021/07/17 01:13:15;;;;;;;28.35;9.48;;;16.50;80.40;;;;;;6274615;22;20026;-78
2021/07/17 01:15:42;;;;;;;17.30;9.10;;;16.40;80.40;;;;;;6274632;22;20077;-77
2021/07/17 01:18:09;;;;;;;22.60;8.90;;;16.50;80.70;;;;;;6274225;22;20366;-78
2021/07/17 01:20:38;;;;;;;22.27;9.23;;;16.50;80.80;;;;;;6274652;22;20019;-78
2021/07/17 01:23:07;;;;;;;29.58;10.30;;;16.50;81.00;;;;;;6275077;22;20020;-78
2021/07/17 01:25:34;;;;;;;22.00;9.57;;;16.50;81.10;;;;;;6274833;22;20485;-78
2021/07/17 01:28:02;;;;;;;27.98;10.05;;;16.50;81.20;;;;;;6275880;22;20042;-78
2021/07/17 01:30:33;;;;;;;35.78;9.00;;;16.60;81.20;;;;;;6275869;22;20016;-78
2021/07/17 01:33:02;;;;;;;23.52;8.90;;;16.50;81.10;;;;;;6274850;22;20455;-77
2021/07/17 01:35:29;;;;;;;21.48;9.35;;;16.60;80.90;;;;;;6274285;22;20020;-78
2021/07/17 01:37:56;;;;;;;26.95;8.55;;;16.60;81.00;;;;;;6276218;22;20018;-78
2021/07/17 01:40:23;;;;;;;21.65;9.20;;;16.60;81.10;;;;;;6275876;22;20363;-77
2021/07/17 01:42:54;;;;;;;20.58;9.13;;;16.60;80.90;;;;;;6274806;22;20020;-78
2021/07/17 01:45:32;;;;;;;20.77;9.50;;;16.60;80.90;;;;;;6275921;22;20460;-78
2021/07/17 01:47:59;;;;;;;22.58;9.40;;;16.60;81.00;;;;;;6275556;22;20058;-78
2021/07/17 01:50:31;;;;;;;20.23;8.95;;;16.60;81.20;;;;;;6275713;22;20020;-77
2021/07/17 01:53:03;;;;;;;27.10;9.70;;;16.60;81.10;;;;;;6218810;22;20369;-77
2021/07/17 01:55:30;;;;;;;26.90;9.95;;;16.60;81.10;;;;;;6182939;23;20364;-78
2021/07/17 01:57:59;;;;;;;25.58;8.98;;;16.60;81.20;;;;;;6184063;23;20017;-77
2021/07/17 02:00:27;;;;;;;21.70;8.65;;;16.60;81.30;;;;;;6182042;23;20021;-77
2021/07/17 02:02:54;;;;;;;18.83;8.05;;;16.60;81.20;;;;;;6182208;23;20025;-77
2021/07/17 02:05:23;;;;;;;30.55;9.00;;;16.70;81.10;;;;;;6182808;23;20063;-77
2021/07/17 02:07:52;;;;;;;31.73;9.35;;;16.60;80.90;;;;;;6182273;23;20017;-78
2021/07/17 02:10:25;;;;;;;21.25;9.55;;;16.60;80.50;;;;;;6184010;23;20493;-77
2021/07/17 02:13:04;;;;;;;28.27;9.75;;;16.60;80.70;;;;;;6185247;23;20601;-77
2021/07/17 02:15:49;;;;;;;30.20;9.80;;;16.60;80.60;;;;;;6183101;23;20025;-77
2021/07/17 02:18:24;;;;;;;27.98;9.43;;;16.60;80.40;;;;;;6183933;23;20025;-78
2021/07/17 02:20:51;;;;;;;23.00;9.35;;;16.60;80.50;;;;;;6184571;23;20481;-78
2021/07/17 02:23:18;;;;;;;31.85;10.48;;;16.60;80.80;;;;;;6185332;23;20021;-76
2021/07/17 02:25:46;;;;;;;26.92;9.25;;;16.60;81.20;;;;;;6187147;23;20021;-77
2021/07/17 02:28:13;;;;;;;26.70;8.70;;;16.60;81.30;;;;;;6187009;23;20021;-75
2021/07/17 02:30:40;;;;;;;17.50;9.38;;;16.60;81.10;;;;;;6185170;23;20028;-75
2021/07/17 02:33:07;;;;;;;25.58;10.38;;;16.60;81.00;;;;;;6185162;23;20017;-75
2021/07/17 02:35:34;;;;;;;24.48;9.35;;;16.60;81.30;;;;;;6186906;23;20017;-76
2021/07/17 02:38:01;;;;;;;27.58;9.95;;;16.60;81.40;;;;;;6190479;23;20017;-75
2021/07/17 02:40:28;;;;;;;26.83;9.77;;;16.60;81.60;;;;;;6190605;23;20322;-75
2021/07/17 02:42:55;;;;;;;26.60;10.18;;;16.60;81.50;;;;;;6190119;23;20021;-75
2021/07/17 02:45:22;;;;;;;23.20;8.73;;;16.60;81.60;;;;;;6190274;23;20031;-75
2021/07/17 02:47:49;;;;;;;21.02;9.43;;;16.60;81.60;;;;;;6190537;23;20021;-75
2021/07/17 02:50:17;;;;;;;21.83;9.38;;;16.60;81.60;;;;;;6190178;23;20017;-75
2021/07/17 02:52:44;;;;;;;26.85;10.02;;;16.60;81.50;;;;;;6216558;23;20484;-76
2021/07/17 02:55:11;;;;;;;25.77;9.43;;;16.60;81.60;;;;;;6216754;23;20025;-75
2021/07/17 02:57:38;;;;;;;22.00;9.68;;;16.60;81.70;;;;;;6216323;23;20483;-76
2021/07/17 03:00:07;;;;;;;24.10;10.32;;;16.60;81.60;;;;;;6189796;23;20021;-76
2021/07/17 03:02:34;;;;;;;25.05;9.63;;;16.60;81.60;;;;;;6216341;23;20472;-76
2021/07/17 03:05:02;;;;;;;24.40;9.05;;;16.60;81.60;;;;;;6190359;23;20079;-75
2021/07/17 03:07:29;;;;;;;25.13;9.90;;;16.60;81.70;;;;;;6189923;23;20360;-76
2021/07/17 03:09:56;;;;;;;24.33;9.50;;;16.60;81.80;;;;;;6189805;23;20348;-76
2021/07/17 03:12:23;;;;;;;23.30;9.32;;;16.60;81.70;;;;;;6216558;23;20490;-76
2021/07/17 03:14:50;;;;;;;25.85;9.90;;;16.60;81.70;;;;;;6215913;23;20020;-75
2021/07/17 03:17:18;;;;;;;28.60;8.77;;;16.60;81.70;;;;;;6189824;23;20530;-76
2021/07/17 03:19:45;;;;;;;24.77;8.98;;;16.60;81.30;;;;;;6216356;23;20021;-76
2021/07/17 03:22:12;;;;;;;23.50;8.43;;;16.60;81.00;;;;;;6216482;23;20048;-76
2021/07/17 03:24:39;;;;;;;27.73;10.02;;;16.60;81.00;;;;;;6190159;23;20021;-75
2021/07/17 03:27:06;;;;;;;26.23;9.20;;;16.60;81.00;;;;;;6190080;23;20452;-75
2021/07/17 03:29:33;;;;;;;22.95;9.88;;;16.60;81.10;;;;;;6215624;23;20020;-75
2021/07/17 03:32:00;;;;;;;20.00;9.52;;;16.60;81.10;;;;;;6216023;23;20456;-75
2021/07/17 03:34:28;;;;;;;27.92;9.57;;;16.60;81.10;;;;;;6216037;23;20027;-75
2021/07/17 03:36:55;;;;;;;25.85;9.43;;;16.60;81.40;;;;;;6215648;23;20355;-75
2021/07/17 03:39:22;;;;;;;24.40;9.32;;;16.60;81.60;;;;;;6216320;23;20020;-76
2021/07/17 03:41:49;;;;;;;23.50;8.48;;;16.60;81.80;;;;;;6216383;23;20020;-75
2021/07/17 03:44:17;;;;;;;27.85;8.55;;;16.50;81.80;;;;;;6215941;23;20054;-76
2021/07/17 03:46:44;;;;;;;24.80;9.40;;;16.60;81.50;;;;;;6216067;23;20017;-75
2021/07/17 03:49:11;;;;;;;23.02;8.90;;;16.60;81.40;;;;;;6215795;23;20356;-76
2021/07/17 03:51:38;;;;;;;33.25;9.68;;;16.60;81.50;;;;;;6215870;23;20024;-75
2021/07/17 03:54:05;;;;;;;23.98;9.15;;;16.60;81.60;;;;;;6216032;23;20017;-75
2021/07/17 03:56:32;;;;;;;30.10;9.98;;;16.60;81.70;;;;;;6189436;23;20027;-75
2021/07/17 03:58:59;;;;;;;19.75;8.07;;;16.50;81.60;;;;;;6189280;23;20045;-75
2021/07/17 04:01:26;;;;;;;25.95;9.68;;;16.60;81.60;;;;;;6216127;23;20027;-76
2021/07/17 04:03:53;;;;;;;24.15;9.57;;;16.60;81.70;;;;;;6215770;23;20472;-76
2021/07/17 04:06:21;;;;;;;24.58;9.48;;;16.60;81.90;;;;;;6215696;23;20040;-75
2021/07/17 04:08:47;;;;;;;29.92;9.55;;;16.50;81.90;;;;;;6215572;23;20024;-75
2021/07/17 04:11:15;;;;;;;25.20;9.27;;;16.60;81.70;;;;;;6215908;23;20027;-75
2021/07/17 04:13:42;;;;;;;28.30;9.05;;;16.50;81.40;;;;;;6215945;23;20027;-75
2021/07/17 04:16:09;;;;;;;22.33;9.05;;;16.60;81.30;;;;;;6189293;23;20468;-76
2021/07/17 04:18:36;;;;;;;25.13;9.43;;;16.50;81.40;;;;;;6215934;23;20016;-76
2021/07/17 04:21:03;;;;;;;22.25;8.90;;;16.50;81.40;;;;;;6189466;23;20016;-75
2021/07/17 04:23:30;;;;;;;27.88;10.23;;;16.50;81.50;;;;;;6189204;23;20031;-76
2021/07/17 04:25:57;;;;;;;32.42;10.73;;;16.50;81.50;;;;;;6189089;23;20465;-76
2021/07/17 04:28:24;;;;;;;28.30;10.38;;;16.60;81.60;;;;;;6188990;23;20031;-75
2021/07/17 04:30:51;;;;;;;25.17;10.82;;;16.60;81.60;;;;;;6215084;23;20021;-75
2021/07/17 04:33:18;;;;;;;30.92;10.05;;;16.50;81.60;;;;;;6215498;23;20017;-76
2021/07/17 04:35:45;;;;;;;33.00;10.00;;;16.60;81.50;;;;;;6215548;23;20020;-76
2021/07/17 04:38:12;;;;;;;25.60;11.52;;;16.60;81.50;;;;;;6215374;23;20021;-75
2021/07/17 04:40:39;;;;;;;24.48;10.50;;;16.50;81.80;;;;;;6189119;23;20096;-75
2021/07/17 04:43:07;;;;;;;28.20;10.88;;;16.60;82.00;;;;;;6189159;23;20020;-75
2021/07/17 04:45:34;;;;;;;29.73;11.70;;;16.60;82.10;;;;;;6189361;23;20020;-75
2021/07/17 04:48:06;;;;;;;30.83;10.63;;;16.60;82.30;;;;;;6189303;23;20349;-76
2021/07/17 04:50:38;;;;;;;33.35;11.10;;;16.60;82.40;;;;;;6215452;23;20029;-76
2021/07/17 04:53:05;;;;;;;29.50;10.68;;;16.60;82.40;;;;;;6188917;23;20023;-75
2021/07/17 04:55:33;;;;;;;24.83;11.45;;;16.60;82.40;;;;;;6214894;23;20024;-76
2021/07/17 04:58:00;;;;;;;25.65;10.50;;;16.60;82.40;;;;;;6215184;23;20021;-75
2021/07/17 05:00:27;;;;;;;27.70;11.23;;;16.60;82.50;;;;;;6188912;23;20027;-76
2021/07/17 05:02:56;;;;;;;30.15;11.10;;;16.60;82.50;;;;;;6189132;23;20028;-75
2021/07/17 05:05:24;;;;;;;33.75;12.18;;;16.60;82.60;;;;;;6215462;23;20021;-75
2021/07/17 05:07:53;;;;;;;31.35;11.63;;;16.60;82.80;;;;;;6215149;23;20364;-75
2021/07/17 05:10:22;;;;;;;30.05;12.82;;;16.70;82.80;;;;;;6214595;23;20491;-75
2021/07/17 05:12:50;;;;;;;33.22;12.30;;;16.70;82.90;;;;;;6189138;23;20021;-76
2021/07/17 05:15:18;;;;;;;41.40;13.82;;;16.60;82.90;;;;;;6189174;23;20023;-75
2021/07/17 05:17:45;;;;;;;29.40;11.82;;;16.60;82.90;;;;;;6215356;23;20023;-75
2021/07/17 05:20:13;;;;;;;36.50;12.48;;;16.60;82.70;;;;;;6188972;23;20031;-76
2021/07/17 05:22:40;;;;;;;29.40;12.00;;;16.70;82.50;;;;;;6215078;23;20025;-75
2021/07/17 05:25:08;;;;;;;28.90;12.38;;;16.70;82.30;;;;;;6188471;23;20024;-76
2021/07/17 05:27:36;;;;;;;28.70;12.48;;;16.70;82.40;;;;;;6215415;23;20031;-76
2021/07/17 05:30:04;;;;;;;24.92;11.38;;;16.70;82.50;;;;;;6214785;23;20366;-76
2021/07/17 05:32:31;;;;;;;31.98;12.00;;;16.70;82.60;;;;;;6214969;23;20016;-75
2021/07/17 05:34:58;;;;;;;32.45;11.40;;;16.70;82.60;;;;;;6214947;23;20027;-75
2021/07/17 05:37:26;;;;;;;31.90;11.95;;;16.70;82.70;;;;;;6188729;23;20355;-75
2021/07/17 05:39:53;;;;;;;25.80;11.85;;;16.70;82.80;;;;;;6188714;23;20021;-75
2021/07/17 05:42:20;;;;;;;42.92;12.57;;;16.80;82.90;;;;;;6189692;23;20017;-76
2021/07/17 05:44:48;;;;;;;29.02;11.32;;;16.80;82.80;;;;;;6217432;23;20024;-75
2021/07/17 05:47:15;;;;;;;25.58;11.95;;;16.80;82.60;;;;;;6217297;23;20017;-75
2021/07/17 05:49:42;;;;;;;29.95;13.07;;;16.80;82.50;;;;;;6217511;23;20027;-76
2021/07/17 05:52:10;;;;;;;33.65;12.73;;;16.80;82.60;;;;;;6216828;23;20027;-75
2021/07/17 05:54:37;;;;;;;29.50;12.23;;;16.80;82.60;;;;;;6216611;23;20017;-75
2021/07/17 05:57:05;;;;;;;40.25;14.10;;;16.80;82.40;;;;;;6217273;23;20028;-75
2021/07/17 05:59:33;;;;;;;26.60;11.88;;;16.80;82.20;;;;;;6217165;23;20023;-75
2021/07/17 06:02:00;;;;;;;25.48;13.48;;;16.80;82.20;;;;;;6217252;23;20028;-75
2021/07/17 06:04:27;;;;;;;35.10;13.93;;;16.80;82.40;;;;;;6217176;23;20028;-75
2021/07/17 06:06:56;;;;;;;34.83;13.15;;;16.80;82.60;;;;;;6217102;23;20020;-75
2021/07/17 06:09:23;;;;;;;30.05;13.13;;;16.80;82.50;;;;;;6190111;23;20028;-75
2021/07/17 06:11:51;;;;;;;33.25;12.23;;;16.80;82.40;;;;;;6190633;23;20355;-75
2021/07/17 06:14:18;;;;;;;28.05;12.15;;;16.80;82.20;;;;;;6216586;23;20022;-75
2021/07/17 06:16:45;;;;;;;29.45;14.05;;;16.80;82.10;;;;;;6190229;23;20463;-75
2021/07/17 06:19:12;;;;;;;33.53;13.48;;;16.80;82.30;;;;;;6216547;23;20471;-75
2021/07/17 06:21:39;;;;;;;31.30;12.82;;;16.90;82.40;;;;;;6190728;23;20031;-75
2021/07/17 06:24:07;;;;;;;32.83;12.35;;;16.90;82.30;;;;;;6190017;23;20027;-75
2021/07/17 06:26:34;;;;;;;27.33;12.30;;;16.90;82.40;;;;;;6216569;23;20025;-75
2021/07/17 06:29:01;;;;;;;33.35;13.20;;;16.90;82.20;;;;;;6217068;23;20027;-75
2021/07/17 06:31:28;;;;;;;28.92;12.82;;;16.90;82.20;;;;;;6190138;23;20027;-75
2021/07/17 06:33:55;;;;;;;27.05;12.40;;;16.90;82.10;;;;;;6216870;23;20044;-76
2021/07/17 06:36:23;;;;;;;37.95;14.10;;;16.90;82.00;;;;;;6216403;23;20027;-75
2021/07/17 06:38:50;;;;;;;29.92;13.18;;;16.90;82.00;;;;;;6190270;23;20091;-76
2021/07/17 06:41:17;;;;;;;26.45;13.00;;;16.90;81.90;;;;;;6190372;23;20096;-76
2021/07/17 06:43:44;;;;;;;44.20;14.70;;;16.90;82.00;;;;;;6216783;23;20340;-76
2021/07/17 06:46:11;;;;;;;30.58;12.65;;;17.00;81.70;;;;;;6190412;23;20468;-75
2021/07/17 06:48:38;;;;;;;33.67;13.65;;;16.90;81.50;;;;;;6216305;23;20030;-75
2021/07/17 06:51:05;;;;;;;41.00;16.15;;;17.00;81.60;;;;;;6189940;23;20023;-75
2021/07/17 06:53:35;;;;;;;28.58;13.70;;;17.00;81.50;;;;;;6189734;23;20498;-75
2021/07/17 06:56:02;;;;;;;42.05;15.35;;;17.00;81.50;;;;;;6189958;23;20490;-75
2021/07/17 06:58:29;;;;;;;36.45;14.07;;;17.00;81.30;;;;;;6216546;23;20016;-75
2021/07/17 07:00:57;;;;;;;34.30;15.23;;;17.00;81.10;;;;;;6216805;23;20025;-76
2021/07/17 07:03:24;;;;;;;41.25;14.43;;;17.00;81.00;;;;;;6190477;23;20047;-76
2021/07/17 07:05:52;;;;;;;38.75;15.05;;;17.00;81.30;;;;;;6217012;23;20020;-75
2021/07/17 07:08:20;;;;;;;35.95;13.55;;;17.10;81.40;;;;;;6190130;23;20027;-76
2021/07/17 07:10:47;;;;;;;33.90;13.38;;;17.10;81.20;;;;;;6216250;23;20059;-75
2021/07/17 07:13:15;;;;;;;42.13;16.10;;;17.10;81.30;;;;;;6190117;23;20096;-75
2021/07/17 07:15:43;;;;;;;28.35;14.18;;;17.10;81.40;;;;;;6216132;23;20098;-75
2021/07/17 07:18:12;;;;;;;34.97;15.18;;;17.20;81.00;;;;;;6190270;23;20079;-76
2021/07/17 07:20:39;;;;;;;31.70;14.10;;;17.20;80.90;;;;;;6189626;23;20024;-75
2021/07/17 07:23:07;;;;;;;40.75;15.15;;;17.20;81.10;;;;;;6216626;23;20021;-77
2021/07/17 07:25:34;;;;;;;37.85;15.15;;;17.20;81.40;;;;;;6216007;23;20052;-76
2021/07/17 07:28:02;;;;;;;35.38;15.70;;;17.30;81.60;;;;;;6216095;23;20096;-75
2021/07/17 07:30:29;;;;;;;34.47;14.90;;;17.30;81.70;;;;;;6216625;23;20021;-75
2021/07/17 07:32:56;;;;;;;33.55;16.10;;;17.40;81.20;;;;;;6216517;23;20017;-75
2021/07/17 07:35:25;;;;;;;38.08;17.35;;;17.40;81.40;;;;;;6215822;23;20023;-75
2021/07/17 07:37:52;;;;;;;35.95;17.50;;;17.40;81.60;;;;;;6190053;23;20017;-75
2021/07/17 07:40:21;;;;;;;30.17;16.45;;;17.40;81.60;;;;;;6190131;23;20017;-76
2021/07/17 07:42:49;;;;;;;31.23;17.38;;;17.40;81.60;;;;;;6190126;23;20051;-77
2021/07/17 07:45:16;;;;;;;45.38;18.77;;;17.40;81.90;;;;;;6189651;23;20478;-76
2021/07/17 07:47:43;;;;;;;47.40;20.23;;;17.50;81.90;;;;;;6215855;23;20016;-75
2021/07/17 07:50:11;;;;;;;37.83;18.85;;;17.50;82.00;;;;;;6216044;23;20043;-75
2021/07/17 07:52:39;;;;;;;49.33;21.77;;;17.60;81.90;;;;;;6216269;23;20017;-75
2021/07/17 07:55:06;;;;;;;40.03;21.10;;;17.60;81.90;;;;;;6216310;23;20139;-76
2021/07/17 07:57:34;;;;;;;42.40;21.42;;;17.70;81.90;;;;;;6215702;23;20021;-76
2021/07/17 08:00:01;;;;;;;38.17;22.23;;;17.80;81.80;;;;;;6189910;23;20021;-76
2021/07/17 08:02:28;;;;;;;49.03;21.80;;;17.80;81.90;;;;;;6216150;23;20021;-77
2021/07/17 08:04:55;;;;;;;42.40;21.95;;;17.80;81.90;;;;;;6212057;23;20024;-77
2021/07/17 08:07:22;;;;;;;40.42;22.15;;;17.90;81.70;;;;;;6187898;23;20024;-77
2021/07/17 08:09:51;;;;;;;43.25;23.15;;;17.90;81.70;;;;;;6188300;23;20025;-77
2021/07/17 08:12:18;;;;;;;47.63;24.25;;;17.90;81.80;;;;;;6188020;23;20104;-77
2021/07/17 08:14:45;;;;;;;42.35;25.80;;;17.90;81.80;;;;;;6214504;23;20459;-77
2021/07/17 08:17:12;;;;;;;40.83;23.70;;;18.00;81.70;;;;;;6188732;23;20020;-78
2021/07/17 08:19:40;;;;;;;43.58;24.85;;;18.00;81.60;;;;;;6187355;23;20055;-77
2021/07/17 08:22:07;;;;;;;46.50;23.67;;;18.10;81.30;;;;;;6188201;23;20459;-77
2021/07/17 08:24:34;;;;;;;46.30;24.60;;;18.20;81.20;;;;;;6188737;23;20016;-76
2021/07/17 08:27:01;;;;;;;41.83;27.10;;;18.20;81.10;;;;;;6213214;23;20472;-76
2021/07/17 08:29:28;;;;;;;41.55;25.35;;;18.20;80.60;;;;;;6214561;23;20017;-76
2021/07/17 08:31:55;;;;;;;43.92;26.27;;;18.20;80.60;;;;;;6214645;23;20020;-76
2021/07/17 08:34:23;;;;;;;39.00;25.83;;;18.30;80.60;;;;;;6187962;23;20024;-78
2021/07/17 08:36:51;;;;;;;44.55;26.40;;;18.30;80.50;;;;;;6214458;23;20468;-77
2021/07/17 08:39:18;;;;;;;46.67;24.85;;;18.40;80.50;;;;;;6188669;23;20021;-77
2021/07/17 08:41:50;;;;;;;46.72;26.73;;;18.40;80.50;;;;;;6214401;23;20472;-78
2021/07/17 08:44:18;;;;;;;40.30;25.00;;;18.40;80.40;;;;;;6214074;23;20101;-77
2021/07/17 08:46:46;;;;;;;36.50;25.77;;;18.40;79.40;;;;;;6187924;23;20021;-77
2021/07/17 08:49:14;;;;;;;39.00;26.13;;;18.40;79.20;;;;;;6187585;23;20371;-77
2021/07/17 08:51:45;;;;;;;42.17;26.23;;;18.50;79.30;;;;;;6188385;23;20024;-78
2021/07/17 08:54:14;;;;;;;43.25;26.80;;;18.50;79.10;;;;;;6188223;23;20023;-78
2021/07/17 08:56:42;;;;;;;35.45;23.50;;;18.50;79.10;;;;;;6214438;23;20029;-79
2021/07/17 08:59:09;;;;;;;45.38;28.67;;;18.60;79.50;;;;;;6214628;23;20042;-79
2021/07/17 09:01:37;;;;;;;38.40;23.30;;;18.70;79.80;;;;;;6188148;23;20021;-85
2021/07/17 09:04:07;;;;;;;36.58;23.25;;;18.70;79.80;;;;;;6187452;23;20023;-82
2021/07/17 09:06:37;;;;;;;33.42;20.50;;;18.70;79.40;;;;;;6187863;23;20031;-87
2021/07/17 09:09:06;;;;;;;34.90;20.83;;;18.90;79.20;;;;;;6213973;23;20044;-80
2021/07/17 09:11:35;;;;;;;36.90;22.65;;;18.90;78.60;;;;;;6214147;23;20099;-86
2021/07/17 09:14:03;;;;;;;29.00;21.42;;;18.90;77.50;;;;;;6188144;23;20023;-79
2021/07/17 09:16:31;;;;;;;35.40;23.15;;;18.90;77.70;;;;;;6187939;23;20399;-80
2021/07/17 09:19:00;;;;;;;39.45;24.95;;;19.00;78.10;;;;;;6214195;23;20020;-83
2021/07/17 09:21:39;;;;;;;40.38;24.17;;;19.10;78.20;;;;;;6214343;23;20017;-85
2021/07/17 09:24:09;;;;;;;34.88;24.80;;;19.10;78.30;;;;;;6214150;23;20495;-83
2021/07/17 09:26:38;;;;;;;45.28;23.95;;;19.20;78.10;;;;;;6187388;23;20476;-78
2021/07/17 09:29:11;;;;;;;33.95;24.50;;;19.30;78.20;;;;;;6213514;23;20067;-78
2021/07/17 09:31:52;;;;;;;38.22;24.35;;;19.40;78.30;;;;;;6187314;23;20132;-78
2021/07/17 09:34:31;;;;;;;40.28;23.60;;;19.50;78.50;;;;;;6187659;23;20012;-84
2021/07/17 09:37:09;;;;;;;33.03;23.38;;;19.60;78.30;;;;;;6188201;23;20464;-84
2021/07/17 09:39:52;;;;;;;39.78;23.40;;;19.80;78.20;;;;;;6188616;23;20040;-86
2021/07/17 09:42:21;;;;;;;35.92;22.45;;;19.90;78.00;;;;;;6187447;23;20476;-79
2021/07/17 09:44:50;;;;;;;32.35;20.83;;;19.90;77.90;;;;;;6213630;23;20020;-79
2021/07/17 09:47:23;;;;;;;30.10;19.40;;;20.00;77.70;;;;;;6187642;23;20021;-79
2021/07/17 09:50:11;;;;;;;34.17;18.60;;;20.00;77.20;;;;;;6213546;23;20475;-78
2021/07/17 09:52:43;;;;;;;27.85;18.98;;;20.10;76.90;;;;;;6187629;23;20551;-78
2021/07/17 09:55:18;;;;;;;34.22;18.88;;;20.20;76.60;;;;;;6186804;23;20021;-77
2021/07/17 09:57:45;;;;;;;30.10;18.50;;;20.30;76.30;;;;;;6213126;23;20023;-78
2021/07/17 10:00:15;;;;;;;29.42;16.75;;;20.30;76.40;;;;;;6187652;23;20012;-78
2021/07/17 10:02:52;;;;;;;25.90;16.30;;;20.40;76.30;;;;;;6189435;23;20084;-78
2021/07/17 10:05:35;;;;;;;26.60;15.82;;;20.40;75.70;;;;;;6187457;23;20027;-77
2021/07/17 10:08:15;;;;;;;27.38;14.57;;;20.50;75.30;;;;;;6187939;23;20020;-78
2021/07/17 10:11:00;;;;;;;24.92;15.80;;;20.50;74.70;;;;;;6187714;23;20025;-78
2021/07/17 10:13:28;;;;;;;32.63;16.15;;;20.50;73.70;;;;;;6187848;23;20016;-78
2021/07/17 10:15:57;;;;;;;26.13;15.40;;;20.60;73.90;;;;;;6213979;23;20074;-78
2021/07/17 10:18:24;;;;;;;27.92;15.57;;;20.70;74.40;;;;;;6186765;23;20017;-78
2021/07/17 10:20:54;;;;;;;26.02;14.30;;;20.80;74.50;;;;;;6187894;23;20016;-79
2021/07/17 10:23:22;;;;;;;35.53;14.63;;;20.80;74.00;;;;;;6187951;23;20017;-78
2021/07/17 10:25:49;;;;;;;29.75;15.77;;;20.90;73.50;;;;;;6212573;23;20025;-78
2021/07/17 10:28:16;;;;;;;24.67;15.20;;;20.90;73.00;;;;;;6213994;23;20017;-78
2021/07/17 10:30:44;;;;;;;29.00;15.00;;;21.00;73.60;;;;;;6215555;23;20023;-78
2021/07/17 10:33:11;;;;;;;27.95;15.15;;;21.10;73.90;;;;;;6215413;23;20348;-77
2021/07/17 10:35:39;;;;;;;22.88;13.48;;;21.10;73.80;;;;;;6215403;23;20052;-78
2021/07/17 10:38:09;;;;;;;23.48;13.85;;;21.30;73.70;;;;;;6215569;23;20360;-77
2021/07/17 10:40:39;;;;;;;26.27;15.05;;;21.30;73.20;;;;;;6188155;23;20012;-77
2021/07/17 10:43:07;;;;;;;24.70;13.65;;;21.40;72.60;;;;;;6215447;23;20025;-78
2021/07/17 10:45:39;;;;;;;24.95;13.60;;;21.40;72.50;;;;;;6215166;23;20043;-77
2021/07/17 10:48:26;;;;;;;22.33;14.25;;;21.50;72.50;;;;;;6215263;23;20047;-78
2021/07/17 10:50:55;;;;;;;22.88;13.30;;;21.50;71.60;;;;;;6189348;23;20031;-77
2021/07/17 10:53:49;;;;;;;25.98;13.93;;;21.60;72.30;;;;;;6189061;23;20017;-76
2021/07/17 10:56:29;;;;;;;;;;;21.70;71.30;;;;;;6175352;23;20172;-78
2021/07/17 10:59:00;;;;;;;23.55;13.10;;;21.80;69.70;;;;;;6189107;23;19927;-78
2021/07/17 11:01:56;;;;;;;24.15;13.45;;;21.80;70.00;;;;;;6189012;23;20021;-77
2021/07/17 11:04:40;;;;;;;20.50;12.57;;;21.90;69.90;;;;;;6214877;23;20024;-77
2021/07/17 11:07:16;;;;;;;19.63;12.13;;;21.90;71.40;;;;;;6215130;23;20099;-76
2021/07/17 11:09:59;;;;;;;21.95;12.50;;;21.90;70.40;;;;;;6214752;23;20035;-77
2021/07/17 11:12:29;;;;;;;23.95;14.10;;;22.00;69.20;;;;;;6189229;23;20028;-78
2021/07/17 11:15:20;;;;;;;20.70;12.85;;;22.00;69.60;;;;;;6215074;23;20100;-77
2021/07/17 11:17:52;;;;;;;18.40;11.02;;;22.10;70.00;;;;;;6214640;23;20059;-78
2021/07/17 11:20:28;;;;;;;18.85;11.63;;;22.20;70.30;;;;;;6215370;23;20028;-78
2021/07/17 11:23:08;;;;;;;22.70;12.40;;;22.20;69.40;;;;;;6214739;23;20025;-78
2021/07/17 11:25:35;;;;;;;23.00;13.20;;;22.40;69.00;;;;;;6188257;23;20471;-78
2021/07/17 11:28:03;;;;;;;23.05;11.57;;;22.40;71.20;;;;;;6188563;23;20021;-78
2021/07/17 11:30:35;;;;;;;15.38;11.73;;;22.40;70.50;;;;;;6188761;23;20028;-78
2021/07/17 11:33:06;;;;;;;25.25;11.43;;;22.50;69.90;;;;;;6188505;23;20027;-80
2021/07/17 11:35:38;;;;;;;17.33;11.20;;;22.60;69.40;;;;;;6214268;23;20393;-78
2021/07/17 11:38:08;;;;;;;20.83;12.23;;;22.60;68.60;;;;;;6188280;23;20024;-78
2021/07/17 11:40:36;;;;;;;16.60;11.10;;;22.70;70.30;;;;;;6188176;23;20363;-78
2021/07/17 11:43:12;;;;;;;17.48;10.25;;;22.80;70.60;;;;;;6188767;23;20020;-79
2021/07/17 11:45:40;;;;;;;18.23;11.15;;;22.90;70.20;;;;;;6214799;23;20025;-78
2021/07/17 11:48:10;;;;;;;19.55;12.27;;;22.90;69.30;;;;;;6188662;23;20024;-78
2021/07/17 11:50:39;;;;;;;20.33;12.85;;;23.00;69.30;;;;;;6215364;23;20021;-79
2021/07/17 11:53:14;;;;;;;25.50;12.45;;;23.20;70.70;;;;;;6215028;23;20025;-79
2021/07/17 11:55:41;;;;;;;22.23;11.63;;;23.30;71.50;;;;;;6214138;23;20020;-78
2021/07/17 11:58:16;;;;;;;19.20;9.20;;;23.30;69.90;;;;;;6214801;23;20091;-78
2021/07/17 12:00:43;;;;;;;19.38;9.93;;;23.40;66.60;;;;;;6214339;23;20025;-78
2021/07/17 12:03:11;;;;;;;22.40;10.65;;;23.30;66.30;;;;;;6188755;23;20055;-78
2021/07/17 12:05:38;;;;;;;16.55;10.55;;;23.40;66.70;;;;;;6188436;23;20095;-78
2021/07/17 12:08:05;;;;;;;20.92;10.35;;;23.40;66.50;;;;;;6188265;23;20021;-79
2021/07/17 12:10:37;;;;;;;26.75;11.80;;;23.40;66.60;;;;;;6214469;23;20044;-79
2021/07/17 12:13:04;;;;;;;18.00;9.52;;;23.50;70.10;;;;;;6214413;23;20087;-79
2021/07/17 12:15:36;;;;;;;19.90;9.05;;;23.60;69.90;;;;;;6188620;23;20023;-78
2021/07/17 12:18:11;;;;;;;19.33;9.32;;;23.70;69.10;;;;;;6187897;23;20456;-78
2021/07/17 12:20:46;;;;;;;23.08;9.35;;;23.70;69.40;;;;;;6188732;23;20017;-78
2021/07/17 12:23:14;;;;;;;17.17;8.70;;;23.80;68.60;;;;;;6214682;23;20020;-78
2021/07/17 12:25:44;;;;;;;17.40;8.00;;;23.90;69.50;;;;;;6187734;23;20100;-78
2021/07/17 12:28:11;;;;;;;20.00;8.65;;;23.90;69.60;;;;;;6188501;23;20463;-79
2021/07/17 12:30:42;;;;;;;15.98;8.50;;;24.00;68.70;;;;;;6188442;23;20021;-78
2021/07/17 12:33:20;;;;;;;16.55;8.20;;;24.10;69.90;;;;;;6188092;23;20022;-78
2021/07/17 12:35:50;;;;;;;18.65;8.55;;;24.20;69.80;;;;;;6214111;23;20026;-78
2021/07/17 12:38:28;;;;;;;15.05;8.05;;;24.30;68.70;;;;;;6188475;23;20016;-79
2021/07/17 12:41:07;;;;;;;16.17;8.52;;;24.30;67.40;;;;;;6187746;23;20017;-79